Time;durP1;ratioP1;P1;durP2;ratioP2;P2;SDS_P1;SDS_P2;PMS_P1;PMS_P2;Temp;Humidity;BMP_temperature;BMP_pressure;BME280_temperature;BME280_humidity;BME280_pressure;Samples;Min_cycle;Max_cycle;Signal;HPM_P1;HPM_P2
2021/12/23 00:01:24;;;;;;;28.08;16.70;;;-1.50;99.90;;;;;;5015508;28;20125;-77
2021/12/23 00:03:50;;;;;;;25.98;16.35;;;-1.70;99.90;;;;;;5050546;28;20051;-77
2021/12/23 00:06:15;;;;;;;29.52;16.95;;;-1.30;99.90;;;;;;5046779;28;20503;-77
2021/12/23 00:08:41;;;;;;;28.00;17.10;;;-1.60;99.90;;;;;;5025514;28;20032;-78
2021/12/23 00:11:07;;;;;;;25.85;15.98;;;-1.40;99.90;;;;;;5064069;28;20415;-78
2021/12/23 00:13:35;;;;;;;28.45;17.17;;;-0.40;99.90;;;;;;5042192;28;20055;-77
2021/12/23 00:16:06;;;;;;;26.40;17.38;;;-1.40;99.90;;;;;;5069355;28;20068;-78
2021/12/23 00:23:51;;;;;;;30.05;16.38;;;-1.30;99.90;;;;;;5048369;28;20090;-77
2021/12/23 00:26:16;;;;;;;27.17;16.95;;;-1.20;99.90;;;;;;5031079;28;20115;-77
2021/12/23 00:28:42;;;;;;;26.35;16.92;;;-1.20;99.90;;;;;;5052218;28;20036;-78
2021/12/23 00:31:08;;;;;;;25.85;16.83;;;-1.30;99.90;;;;;;5040187;28;20036;-77
2021/12/23 00:33:36;;;;;;;27.85;17.35;;;-0.90;99.90;;;;;;5027408;28;20041;-77
2021/12/23 00:36:04;;;;;;;27.63;15.82;;;-1.30;99.90;;;;;;5070683;28;20033;-78
2021/12/23 00:38:39;;;;;;;28.20;17.05;;;-1.60;99.90;;;;;;5027878;28;20328;-78
2021/12/23 00:41:04;;;;;;;25.83;16.42;;;-1.30;99.90;;;;;;5042872;28;20568;-77
2021/12/23 00:43:31;;;;;;;26.48;17.55;;;-1.30;99.90;;;;;;5032259;28;20120;-78
2021/12/23 00:45:58;;;;;;;26.33;17.45;;;-1.30;99.90;;;;;;5028307;28;20488;-78
2021/12/23 00:48:25;;;;;;;26.48;16.15;;;-1.30;99.90;;;;;;5050890;28;20084;-78
2021/12/23 00:50:51;;;;;;;25.35;16.75;;;-1.50;99.90;;;;;;5049093;28;20067;-78
2021/12/23 00:53:19;;;;;;;28.92;16.33;;;-1.40;99.90;;;;;;5068086;28;20032;-77
2021/12/23 00:55:49;;;;;;;25.42;16.58;;;-1.20;99.90;;;;;;5055716;28;20539;-77
2021/12/23 00:58:15;;;;;;;24.35;14.80;;;-1.40;99.90;;;;;;5053828;28;20130;-77
2021/12/23 01:00:40;;;;;;;29.55;15.82;;;-0.80;99.90;;;;;;5003364;28;20078;-77
2021/12/23 01:03:06;;;;;;;26.40;16.02;;;-0.90;99.90;;;;;;5028760;28;20044;-77
2021/12/23 01:05:33;;;;;;;25.85;16.50;;;-1.30;99.90;;;;;;5039731;28;20591;-77
2021/12/23 01:07:58;;;;;;;28.33;15.88;;;-1.20;99.90;;;;;;5072286;28;20036;-77
2021/12/23 01:10:25;;;;;;;27.58;17.02;;;-1.00;99.90;;;;;;5050532;28;20041;-78
2021/12/23 01:12:58;;;;;;;25.02;16.33;;;-1.30;99.90;;;;;;5053011;28;20040;-77
2021/12/23 01:17:56;;;;;;;27.35;17.13;;;-1.00;99.90;;;;;;5084757;28;20044;-78
2021/12/23 01:20:27;;;;;;;;;;;-1.20;99.90;;;;;;5042081;28;20044;-78
2021/12/23 01:22:56;;;;;;;24.25;16.13;;;-0.30;99.90;;;;;;5066169;28;19916;-78
2021/12/23 01:25:22;;;;;;;25.83;16.60;;;-1.20;99.90;;;;;;5047503;28;20032;-77
2021/12/23 01:27:49;;;;;;;25.75;15.20;;;-0.90;99.90;;;;;;5033546;28;20028;-77
2021/12/23 01:30:17;;;;;;;23.17;15.70;;;-1.10;99.90;;;;;;5047891;28;20045;-77
2021/12/23 01:32:44;;;;;;;25.52;16.17;;;-1.40;99.90;;;;;;5062824;28;20072;-77
2021/12/23 01:35:10;;;;;;;24.15;15.95;;;-0.90;99.90;;;;;;5087132;28;20056;-77
2021/12/23 01:37:36;;;;;;;24.90;16.05;;;-0.80;99.90;;;;;;5041979;28;20037;-77
2021/12/23 01:40:03;;;;;;;25.23;16.30;;;-0.80;99.90;;;;;;5086305;28;20077;-77
2021/12/23 01:42:29;;;;;;;26.95;17.05;;;-0.90;99.90;;;;;;5036282;28;20036;-77
2021/12/23 01:44:54;;;;;;;23.17;15.25;;;-0.70;99.90;;;;;;5077857;28;20048;-77
2021/12/23 01:47:20;;;;;;;25.42;15.82;;;-0.80;99.90;;;;;;5046945;28;20053;-77
2021/12/23 01:49:46;;;;;;;25.13;16.30;;;-0.60;99.90;;;;;;5054409;28;20109;-77
2021/12/23 01:52:12;;;;;;;25.55;16.80;;;-0.80;99.90;;;;;;5051914;28;22406;-77
2021/12/23 01:54:38;;;;;;;24.90;16.17;;;-0.90;99.90;;;;;;5051319;28;20078;-77
2021/12/23 01:57:04;;;;;;;26.55;17.00;;;-0.50;99.90;;;;;;5058268;28;20407;-77
2021/12/23 01:59:32;;;;;;;26.85;17.52;;;-0.80;99.90;;;;;;5028758;28;20036;-76
2021/12/23 02:01:59;;;;;;;26.73;16.23;;;-0.70;99.90;;;;;;5042449;28;20111;-77
2021/12/23 02:04:24;;;;;;;25.83;15.98;;;-0.60;99.90;;;;;;5081701;28;20040;-77
2021/12/23 02:06:50;;;;;;;24.95;15.27;;;-0.60;99.90;;;;;;5033859;28;20045;-77
2021/12/23 02:09:18;;;;;;;27.77;16.33;;;-0.90;99.90;;;;;;5063721;28;20151;-77
2021/12/23 02:11:44;;;;;;;22.52;13.88;;;-0.50;99.90;;;;;;5033714;28;20086;-77
2021/12/23 02:14:10;;;;;;;25.05;15.50;;;-0.70;99.90;;;;;;5040559;28;20041;-77
2021/12/23 02:16:35;;;;;;;23.48;13.32;;;-0.50;99.90;;;;;;5024479;28;20035;-77
2021/12/23 02:19:04;;;;;;;26.17;16.08;;;-0.50;99.90;;;;;;5026029;28;20120;-77
2021/12/23 02:21:29;;;;;;;23.65;15.20;;;-0.90;99.90;;;;;;5033485;28;20043;-76
2021/12/23 02:23:55;;;;;;;24.80;14.45;;;-0.80;99.90;;;;;;5041382;28;20115;-77
2021/12/23 02:26:21;;;;;;;24.00;15.32;;;-0.80;99.90;;;;;;5051830;28;20456;-78
2021/12/23 02:28:47;;;;;;;25.60;15.95;;;-0.70;99.90;;;;;;5032231;28;20057;-77
2021/12/23 02:31:13;;;;;;;23.77;14.80;;;-0.30;99.90;;;;;;5039733;28;20040;-78
2021/12/23 02:33:38;;;;;;;24.02;15.85;;;-0.80;99.90;;;;;;5043504;28;20082;-78
2021/12/23 02:36:04;;;;;;;26.65;17.10;;;-1.00;99.90;;;;;;5049676;28;20036;-77
2021/12/23 02:38:33;;;;;;;25.30;14.82;;;-0.80;99.90;;;;;;5060722;28;20131;-78
2021/12/23 02:40:59;;;;;;;25.92;15.00;;;-0.90;99.90;;;;;;5050129;28;20131;-78
2021/12/23 02:43:27;;;;;;;24.02;14.75;;;-0.80;99.90;;;;;;5048252;28;20122;-78
2021/12/23 02:45:57;;;;;;;21.58;14.25;;;-0.70;99.90;;;;;;5029933;28;20483;-77
2021/12/23 02:48:31;;;;;;;26.85;15.80;;;-0.90;99.90;;;;;;5080637;28;20056;-77
2021/12/23 02:50:58;;;;;;;19.33;13.68;;;-0.80;99.90;;;;;;5066025;28;20040;-77
2021/12/23 02:53:24;;;;;;;22.50;14.70;;;-0.80;99.90;;;;;;5042984;28;20045;-77
2021/12/23 02:55:55;;;;;;;26.23;15.23;;;-0.70;99.90;;;;;;5043304;28;20044;-77
2021/12/23 02:58:21;;;;;;;23.35;14.85;;;0.00;99.90;;;;;;5058846;28;20028;-78
2021/12/23 03:00:48;;;;;;;25.73;14.43;;;-0.60;99.90;;;;;;5051843;28;20068;-77
2021/12/23 03:03:14;;;;;;;23.83;15.23;;;-0.70;99.90;;;;;;5013917;28;20045;-78
2021/12/23 03:05:55;;;;;;;27.88;14.90;;;0.30;99.90;;;;;;5047756;28;20082;-77
2021/12/23 03:08:34;;;;;;;21.05;13.15;;;-0.40;99.90;;;;;;5025437;28;20540;-77
2021/12/23 03:11:00;;;;;;;22.13;13.70;;;-0.80;99.90;;;;;;5028188;28;20408;-77
2021/12/23 03:13:25;;;;;;;22.00;13.48;;;-0.20;99.90;;;;;;5077732;28;20425;-77
2021/12/23 03:15:51;;;;;;;19.48;13.40;;;-0.60;99.90;;;;;;5042302;28;20089;-77
2021/12/23 03:18:17;;;;;;;17.95;11.85;;;-0.40;99.90;;;;;;5029966;28;20043;-77
2021/12/23 03:20:43;;;;;;;19.60;13.70;;;-0.50;99.90;;;;;;5048409;28;20036;-77
2021/12/23 03:23:09;;;;;;;18.83;10.52;;;-0.20;99.90;;;;;;5029873;28;20044;-78
2021/12/23 03:25:35;;;;;;;21.50;13.82;;;-0.50;99.90;;;;;;5058635;28;20526;-77
2021/12/23 03:28:01;;;;;;;21.52;13.18;;;-0.50;99.90;;;;;;5020519;28;20102;-78
2021/12/23 03:30:27;;;;;;;21.75;12.07;;;-0.50;99.90;;;;;;5062480;28;20048;-77
2021/12/23 03:32:52;;;;;;;24.67;13.27;;;-0.30;99.90;;;;;;5071365;28;20036;-78
2021/12/23 03:35:18;;;;;;;24.88;13.98;;;-0.50;99.90;;;;;;5062178;28;20094;-78
2021/12/23 03:37:45;;;;;;;23.20;15.25;;;-0.20;99.90;;;;;;5065437;28;20544;-78
2021/12/23 03:40:12;;;;;;;22.85;13.90;;;-0.40;99.90;;;;;;5080189;28;20340;-77
2021/12/23 03:42:39;;;;;;;20.52;13.68;;;-0.50;99.90;;;;;;5057868;28;20051;-78
2021/12/23 03:45:07;;;;;;;23.25;14.80;;;0.10;99.90;;;;;;5028848;28;20032;-77
2021/12/23 03:47:34;;;;;;;22.77;13.45;;;-0.30;99.90;;;;;;5066129;28;21645;-77
2021/12/23 03:50:00;;;;;;;21.35;13.25;;;-0.40;99.90;;;;;;5043059;28;20106;-78
2021/12/23 03:52:26;;;;;;;17.42;11.43;;;0.60;99.90;;;;;;5069074;28;20469;-78
2021/12/23 03:54:51;;;;;;;19.23;12.10;;;-0.10;99.90;;;;;;5046899;28;20058;-77
2021/12/23 03:57:17;;;;;;;18.65;11.00;;;-0.40;99.90;;;;;;5031709;28;20033;-78
2021/12/23 03:59:43;;;;;;;21.88;13.30;;;-0.40;99.90;;;;;;5023534;28;20040;-77
2021/12/23 04:02:08;;;;;;;18.80;11.77;;;-0.30;99.90;;;;;;5033371;28;20373;-77
2021/12/23 04:04:34;;;;;;;23.40;14.32;;;-0.30;99.90;;;;;;5026578;28;20040;-77
2021/12/23 04:07:00;;;;;;;21.63;11.80;;;-0.40;99.90;;;;;;5049469;28;20107;-78
2021/12/23 04:09:26;;;;;;;22.58;14.60;;;0.00;99.90;;;;;;5030518;28;20045;-78
2021/12/23 04:11:51;;;;;;;24.95;13.85;;;-0.40;99.90;;;;;;5048742;28;20067;-77
2021/12/23 04:14:17;;;;;;;21.30;12.77;;;0.30;99.90;;;;;;5060455;28;20036;-77
2021/12/23 04:16:43;;;;;;;22.88;12.07;;;-0.30;99.90;;;;;;5059832;28;20082;-77
2021/12/23 04:19:10;;;;;;;21.35;13.93;;;-0.30;99.90;;;;;;5052242;28;20032;-77
2021/12/23 04:21:37;;;;;;;22.88;13.18;;;-0.30;99.90;;;;;;5082672;28;20060;-76
2021/12/23 04:24:04;;;;;;;21.20;12.73;;;0.20;99.90;;;;;;5059475;28;20695;-76
2021/12/23 04:26:29;;;;;;;19.30;12.27;;;-0.30;99.90;;;;;;5077285;28;20400;-76
2021/12/23 04:28:55;;;;;;;21.33;12.07;;;;;;;;;;5063117;28;20336;-78
2021/12/23 04:31:23;;;;;;;23.52;12.38;;;-0.40;99.90;;;;;;5080215;28;20047;-79
2021/12/23 04:33:52;;;;;;;24.25;14.50;;;-0.30;99.90;;;;;;5052651;28;20450;-78
2021/12/23 04:36:18;;;;;;;23.02;12.90;;;0.50;99.90;;;;;;5063886;28;20037;-78
2021/12/23 04:38:46;;;;;;;23.48;13.70;;;-0.30;99.90;;;;;;5064573;28;20036;-78
2021/12/23 04:41:12;;;;;;;26.02;14.80;;;-0.30;99.90;;;;;;5015349;28;20383;-78
2021/12/23 04:43:39;;;;;;;25.00;14.90;;;-0.30;99.90;;;;;;5061571;28;20032;-78
2021/12/23 04:46:05;;;;;;;21.40;14.40;;;0.70;99.90;;;;;;5049078;28;21211;-78
2021/12/23 04:48:31;;;;;;;25.80;14.63;;;-0.10;99.90;;;;;;5078710;28;20061;-78
2021/12/23 04:50:58;;;;;;;25.02;14.57;;;0.80;99.90;;;;;;5077779;28;20048;-77
2021/12/23 04:53:24;;;;;;;24.02;14.80;;;1.20;99.90;;;;;;5045793;28;20041;-77
2021/12/23 04:55:50;;;;;;;21.63;13.38;;;;;;;;;;5063857;28;20036;-77
2021/12/23 04:58:16;;;;;;;25.85;13.93;;;-0.10;99.90;;;;;;5033311;28;20036;-77
2021/12/23 05:00:48;;;;;;;22.75;13.23;;;-0.10;99.90;;;;;;5050503;28;20464;-77
2021/12/23 05:03:18;;;;;;;25.67;14.73;;;0.10;99.90;;;;;;5033018;28;20033;-78
2021/12/23 05:05:45;;;;;;;22.15;11.82;;;0.10;99.90;;;;;;5083774;28;20032;-78
2021/12/23 05:08:11;;;;;;;23.40;14.57;;;0.20;99.90;;;;;;5042638;28;20058;-77
2021/12/23 05:10:37;;;;;;;22.63;12.98;;;0.00;99.90;;;;;;5026331;28;20043;-77
2021/12/23 05:13:03;;;;;;;21.33;12.13;;;0.20;99.90;;;;;;5043771;28;20051;-78
2021/12/23 05:15:30;;;;;;;25.67;15.35;;;0.10;99.90;;;;;;5049045;28;20480;-78
2021/12/23 05:17:57;;;;;;;20.13;12.85;;;0.00;99.90;;;;;;5049378;28;20029;-78
2021/12/23 05:20:23;;;;;;;23.17;13.38;;;0.10;99.90;;;;;;5047241;28;20089;-78
2021/12/23 05:22:50;;;;;;;22.95;13.60;;;-0.10;99.90;;;;;;5077956;28;20582;-78
2021/12/23 05:25:16;;;;;;;22.30;13.75;;;0.10;99.90;;;;;;5080456;28;20080;-78
2021/12/23 05:27:43;;;;;;;23.48;14.23;;;0.10;99.90;;;;;;5034651;28;20041;-79
2021/12/23 05:30:15;;;;;;;20.27;11.27;;;0.10;99.90;;;;;;5064133;28;20520;-78
2021/12/23 05:32:42;;;;;;;21.58;12.73;;;0.50;99.90;;;;;;5079771;28;20039;-78
2021/12/23 05:35:09;;;;;;;24.55;13.82;;;0.20;99.90;;;;;;5033077;28;20032;-78
2021/12/23 05:37:35;;;;;;;23.33;13.50;;;0.00;99.90;;;;;;5083648;28;20039;-78
2021/12/23 05:40:02;;;;;;;22.20;13.95;;;0.00;99.90;;;;;;5046956;28;20377;-78
2021/12/23 05:42:28;;;;;;;20.27;12.98;;;0.30;99.90;;;;;;5014798;28;20454;-78
2021/12/23 05:44:53;;;;;;;23.63;13.52;;;-0.20;99.90;;;;;;5041250;28;20102;-78
2021/12/23 05:47:19;;;;;;;25.52;14.20;;;-0.10;99.90;;;;;;5015114;28;20044;-78
2021/12/23 05:49:45;;;;;;;23.30;14.13;;;0.20;99.90;;;;;;5016347;28;20060;-78
2021/12/23 05:52:11;;;;;;;24.35;15.82;;;0.20;99.90;;;;;;5044800;28;20040;-78
2021/12/23 05:54:36;;;;;;;24.38;12.27;;;0.10;99.90;;;;;;5047017;28;20481;-77
2021/12/23 05:57:03;;;;;;;22.85;12.88;;;0.00;99.90;;;;;;5052160;28;20055;-77
2021/12/23 05:59:33;;;;;;;24.08;15.73;;;0.00;99.90;;;;;;5016326;28;20468;-78
2021/12/23 06:01:59;;;;;;;19.23;12.10;;;0.40;99.90;;;;;;5031536;28;20044;-78
2021/12/23 06:04:25;;;;;;;25.20;13.77;;;0.00;99.90;;;;;;5066138;28;20563;-77
2021/12/23 06:06:51;;;;;;;23.85;13.35;;;0.40;99.90;;;;;;5032528;28;20425;-77
2021/12/23 06:09:17;;;;;;;22.83;13.00;;;0.20;99.90;;;;;;5013675;28;20132;-77
2021/12/23 06:11:43;;;;;;;23.85;14.77;;;0.20;99.90;;;;;;5048605;28;20548;-78
2021/12/23 06:14:09;;;;;;;22.58;12.10;;;0.60;99.90;;;;;;5029470;28;20335;-78
2021/12/23 06:16:35;;;;;;;23.83;12.93;;;0.00;99.90;;;;;;5047058;28;20047;-78
2021/12/23 06:19:01;;;;;;;20.70;13.20;;;0.00;99.90;;;;;;5047587;28;20515;-78
2021/12/23 06:21:29;;;;;;;23.88;16.05;;;0.30;99.90;;;;;;5029818;28;20047;-78
2021/12/23 06:23:55;;;;;;;25.33;15.98;;;0.20;99.90;;;;;;5048426;28;20507;-77
2021/12/23 06:26:21;;;;;;;24.48;14.75;;;-0.10;99.90;;;;;;5047561;28;20551;-76
2021/12/23 06:28:48;;;;;;;22.60;15.05;;;0.30;99.90;;;;;;5033171;28;20070;-75
2021/12/23 06:31:13;;;;;;;24.90;14.85;;;0.40;99.90;;;;;;5048067;28;20047;-75
2021/12/23 06:33:39;;;;;;;25.63;13.38;;;0.20;99.90;;;;;;5047681;28;20824;-75
2021/12/23 06:36:05;;;;;;;25.15;14.98;;;0.10;99.90;;;;;;5032016;28;20032;-75
2021/12/23 06:38:31;;;;;;;23.45;13.75;;;0.30;99.90;;;;;;5078894;28;20098;-76
2021/12/23 06:40:58;;;;;;;25.50;12.93;;;0.30;99.90;;;;;;5063754;28;20500;-76
2021/12/23 06:43:24;;;;;;;17.80;9.68;;;0.50;99.90;;;;;;5046169;28;20072;-75
2021/12/23 06:45:49;;;;;;;22.48;12.57;;;0.40;99.90;;;;;;5046105;28;20583;-76
2021/12/23 06:48:15;;;;;;;22.92;12.68;;;0.50;99.90;;;;;;5048874;28;20059;-76
2021/12/23 06:50:42;;;;;;;26.95;14.02;;;0.60;99.90;;;;;;5078599;28;20052;-75
2021/12/23 06:53:08;;;;;;;26.02;12.45;;;0.60;99.90;;;;;;5046883;28;20037;-76
2021/12/23 06:55:34;;;;;;;20.25;11.90;;;0.20;99.90;;;;;;5051221;28;20378;-76
2021/12/23 06:58:00;;;;;;;20.83;11.70;;;;;;;;;;5050894;28;20066;-76
2021/12/23 07:00:27;;;;;;;23.40;13.32;;;;;;;;;;5052248;28;20040;-76
2021/12/23 07:02:54;;;;;;;28.15;15.55;;;;;;;;;;5028867;28;20388;-76
2021/12/23 07:05:22;;;;;;;23.05;11.57;;;;;;;;;;5080060;28;20051;-76
2021/12/23 07:08:05;;;;;;;29.58;17.33;;;;;;;;;;5064016;28;20036;-76
2021/12/23 07:10:31;;;;;;;24.75;15.20;;;;;;;;;;5053770;28;20086;-76
2021/12/23 07:12:59;;;;;;;28.92;15.20;;;0.30;99.90;;;;;;5084081;28;20040;-75
2021/12/23 07:15:26;;;;;;;27.42;16.60;;;0.60;99.90;;;;;;5073325;28;20388;-77
2021/12/23 07:17:54;;;;;;;27.02;17.38;;;1.10;99.90;;;;;;5045190;28;20044;-76
2021/12/23 07:20:21;;;;;;;22.17;13.18;;;0.60;99.90;;;;;;5031411;28;20135;-76
2021/12/23 07:22:47;;;;;;;27.45;15.95;;;0.90;99.90;;;;;;5056906;28;20802;-76
2021/12/23 07:25:13;;;;;;;27.23;15.35;;;0.50;99.90;;;;;;5008200;28;20076;-76
2021/12/23 07:27:40;;;;;;;25.20;15.25;;;0.70;99.90;;;;;;5027901;28;20036;-76
2021/12/23 07:30:07;;;;;;;31.35;15.35;;;0.70;99.90;;;;;;5027275;28;20433;-76
2021/12/23 07:32:33;;;;;;;25.70;15.10;;;0.30;99.90;;;;;;5034538;28;20111;-75
2021/12/23 07:34:59;;;;;;;26.05;15.68;;;;;;;;;;5024845;28;20066;-76
2021/12/23 07:37:25;;;;;;;25.83;15.90;;;;;;;;;;5007516;28;20029;-76
2021/12/23 07:39:53;;;;;;;27.27;15.10;;;;;;;;;;5042848;28;20493;-77
2021/12/23 07:42:20;;;;;;;25.90;16.00;;;;;;;;;;5030460;28;20066;-76
2021/12/23 07:44:46;;;;;;;26.05;16.73;;;;;;;;;;5040142;28;20032;-76
2021/12/23 07:47:13;;;;;;;24.35;15.00;;;;;;;;;;5027284;28;20040;-77
2021/12/23 07:49:41;;;;;;;28.17;17.70;;;;;;;;;;5074911;28;20052;-76
2021/12/23 07:52:07;;;;;;;27.38;15.77;;;;;;;;;;5073589;28;20036;-77
2021/12/23 07:54:34;;;;;;;24.85;13.55;;;;;;;;;;5045980;28;20044;-76
2021/12/23 07:57:00;;;;;;;29.42;16.80;;;;;;;;;;5080609;28;20130;-76
2021/12/23 07:59:28;;;;;;;31.05;18.65;;;;;;;;;;5053950;28;20163;-76
2021/12/23 08:01:54;;;;;;;26.83;16.40;;;;;;;;;;5068070;28;20058;-77
2021/12/23 08:04:20;;;;;;;28.55;16.52;;;;;;;;;;5051097;28;20129;-77
2021/12/23 08:06:55;;;;;;;25.98;14.27;;;;;;;;;;5066234;28;20086;-77
2021/12/23 08:09:21;;;;;;;26.60;13.70;;;;;;;;;;5067210;28;20032;-76
2021/12/23 08:11:47;;;;;;;28.30;16.02;;;;;;;;;;5049542;28;20067;-76
2021/12/23 08:14:13;;;;;;;28.92;16.60;;;;;;;;;;5085462;28;20040;-77
2021/12/23 08:16:40;;;;;;;26.33;14.20;;;;;;;;;;5051440;28;20032;-77
2021/12/23 08:19:06;;;;;;;28.58;16.25;;;;;;;;;;5065372;28;20036;-77
2021/12/23 08:21:32;;;;;;;28.80;15.65;;;;;;;;;;5034381;28;20029;-76
2021/12/23 08:23:58;;;;;;;27.40;15.80;;;;;;;;;;5035889;28;20131;-76
2021/12/23 08:26:28;;;;;;;27.95;18.38;;;;;;;;;;5036002;28;20051;-77
2021/12/23 08:28:55;;;;;;;26.67;14.60;;;;;;;;;;5053082;28;20033;-77
2021/12/23 08:31:21;;;;;;;27.23;13.70;;;;;;;;;;5085445;28;20487;-77
2021/12/23 08:33:47;;;;;;;30.08;18.42;;;;;;;;;;5019509;28;20412;-76
2021/12/23 08:36:13;;;;;;;29.27;17.63;;;;;;;;;;5037308;28;20119;-76
2021/12/23 08:38:40;;;;;;;33.83;18.75;;;;;;;;;;5052359;28;20029;-76
2021/12/23 08:41:07;;;;;;;30.00;17.75;;;;;;;;;;5054066;28;20447;-76
2021/12/23 08:43:33;;;;;;;32.08;18.95;;;;;;;;;;5055570;28;20032;-76
2021/12/23 08:45:59;;;;;;;32.88;19.80;;;;;;;;;;5056707;28;20503;-75
2021/12/23 08:48:25;;;;;;;28.63;18.52;;;;;;;;;;5053790;28;20040;-76
2021/12/23 08:50:52;;;;;;;28.98;18.27;;;;;;;;;;5032614;28;20110;-75
2021/12/23 08:53:18;;;;;;;31.00;19.52;;;;;;;;;;5027788;28;20455;-74
2021/12/23 08:55:44;;;;;;;30.30;17.00;;;;;;;;;;5029651;28;20087;-75
2021/12/23 08:58:10;;;;;;;30.98;19.27;;;;;;;;;;5008307;28;20159;-74
2021/12/23 09:00:37;;;;;;;33.60;18.90;;;;;;;;;;5034251;28;20509;-74
2021/12/23 09:03:05;;;;;;;34.60;20.02;;;;;;;;;;5051465;28;20590;-74
2021/12/23 09:05:31;;;;;;;33.72;18.13;;;;;;;;;;5014961;28;20037;-74
2021/12/23 09:07:57;;;;;;;33.90;18.27;;;;;;;;;;5045242;28;20045;-75
2021/12/23 09:10:23;;;;;;;37.22;22.45;;;;;;;;;;5037830;28;20045;-75
2021/12/23 09:12:50;;;;;;;34.75;21.25;;;;;;;;;;5012570;28;20461;-74
2021/12/23 09:15:18;;;;;;;31.15;17.83;;;0.30;99.90;;;;;;5045395;28;20044;-74
2021/12/23 09:17:44;;;;;;;29.60;17.15;;;;;;;;;;4995822;28;20494;-74
2021/12/23 09:20:11;;;;;;;33.05;18.15;;;;;;;;;;5018729;28;20061;-74
2021/12/23 09:22:38;;;;;;;28.20;17.67;;;;;;;;;;5008881;28;20040;-75
2021/12/23 09:25:10;;;;;;;35.58;19.95;;;;;;;;;;5028684;28;20052;-75
2021/12/23 09:27:54;;;;;;;29.08;17.35;;;0.20;99.90;;;;;;5010805;28;20049;-75
2021/12/23 09:33:05;;;;;;;31.67;18.85;;;;;;;;;;5011861;28;20199;-75
2021/12/23 09:35:32;;;;;;;39.13;21.08;;;;;;;;;;5031659;28;20132;-75
2021/12/23 09:37:59;;;;;;;34.97;18.33;;;;;;;;;;5017865;28;20041;-76
2021/12/23 09:40:26;;;;;;;36.20;20.40;;;;;;;;;;5033297;28;20075;-76
2021/12/23 09:42:52;;;;;;;41.95;23.48;;;;;;;;;;5030227;28;20420;-79
2021/12/23 09:45:19;;;;;;;28.23;13.77;;;;;;;;;;5050066;28;20042;-79
2021/12/23 09:47:47;;;;;;;37.25;23.33;;;;;;;;;;5045183;28;20041;-78
2021/12/23 09:50:15;;;;;;;38.42;21.73;;;;;;;;;;5035614;28;20041;-78
2021/12/23 09:52:43;;;;;;;48.40;26.58;;;;;;;;;;5052664;28;20067;-78
2021/12/23 09:55:09;;;;;;;35.28;20.55;;;;;;;;;;5058668;28;20528;-77
2021/12/23 09:57:36;;;;;;;41.25;23.55;;;;;;;;;;5027905;28;20053;-77
2021/12/23 10:00:02;;;;;;;40.45;21.88;;;;;;;;;;4997381;28;20033;-77
2021/12/23 10:02:28;;;;;;;41.58;23.63;;;;;;;;;;5032035;28;20136;-78
2021/12/23 10:04:54;;;;;;;45.88;24.13;;;;;;;;;;5002083;28;20103;-78
2021/12/23 10:07:20;;;;;;;43.40;22.27;;;;;;;;;;5030998;28;20048;-77
2021/12/23 10:32:53;;;;;;;54.65;29.05;;;0.60;99.90;;;;;;5029131;28;20408;-76
2021/12/23 10:38:09;;;;;;;51.35;25.10;;;;;;;;;;5028751;28;20067;-77
2021/12/23 10:40:37;;;;;;;47.17;23.95;;;0.50;99.90;;;;;;5022899;28;20056;-77
2021/12/23 10:43:04;;;;;;;43.58;22.92;;;0.80;99.90;;;;;;5016356;28;20036;-77
2021/12/23 10:45:45;;;;;;;55.58;28.98;;;0.60;99.90;;;;;;5001786;28;20036;-76
2021/12/23 10:48:15;;;;;;;55.85;27.17;;;0.60;99.90;;;;;;5027992;28;20042;-77
2021/12/23 10:50:49;;;;;;;45.72;23.08;;;0.70;99.90;;;;;;5043477;28;20060;-76
2021/12/23 10:59:19;;;;;;;49.13;26.02;;;0.50;99.90;;;;;;5022116;28;20556;-77
2021/12/23 11:02:02;;;;;;;47.63;25.38;;;0.50;99.90;;;;;;5024699;28;20071;-77
2021/12/23 11:04:33;;;;;;;48.47;24.27;;;0.50;99.90;;;;;;5027491;28;20439;-74
2021/12/23 11:07:16;;;;;;;46.10;23.83;;;0.50;99.90;;;;;;5030485;28;20091;-74
2021/12/23 11:10:26;;;;;;;50.05;25.73;;;0.70;99.90;;;;;;5062549;28;20047;-74
2021/12/23 11:41:05;;;;;;;52.72;27.25;;;0.40;99.90;;;;;;5057637;28;20045;-76
2021/12/23 11:43:47;;;;;;;51.88;27.30;;;0.50;99.90;;;;;;5000811;28;20045;-76
2021/12/23 11:46:16;;;;;;;53.05;26.70;;;0.50;99.90;;;;;;5044905;28;20044;-76
2021/12/23 11:48:45;;;;;;;52.35;27.50;;;0.50;99.90;;;;;;5029228;28;20056;-76
2021/12/23 11:51:16;;;;;;;46.65;24.98;;;0.50;99.90;;;;;;5012375;28;20048;-76
2021/12/23 11:53:47;;;;;;;53.50;28.73;;;0.50;99.90;;;;;;5057071;28;20087;-76
2021/12/23 11:56:14;;;;;;;50.95;27.52;;;0.60;99.90;;;;;;5024794;28;20040;-76
2021/12/23 11:58:43;;;;;;;52.33;26.77;;;0.60;99.90;;;;;;5043233;28;20116;-76
2021/12/23 12:01:21;;;;;;;56.47;31.10;;;0.60;99.90;;;;;;5016316;28;20408;-76
2021/12/23 12:04:01;;;;;;;52.33;26.45;;;0.60;99.90;;;;;;5033061;28;20095;-75
2021/12/23 12:06:29;;;;;;;64.22;31.88;;;0.50;99.90;;;;;;5010276;28;20041;-76
2021/12/23 12:09:15;;;;;;;49.28;26.08;;;0.60;99.90;;;;;;5029211;28;20460;-76
2021/12/23 12:11:47;;;;;;;54.58;27.63;;;0.60;99.90;;;;;;5061426;28;20052;-75
2021/12/23 12:14:41;;;;;;;60.28;29.50;;;0.60;99.90;;;;;;5027739;28;20040;-75
2021/12/23 12:17:25;;;;;;;63.35;33.03;;;0.60;99.90;;;;;;5028803;28;20139;-75
2021/12/23 12:19:57;;;;;;;55.92;29.02;;;0.60;99.90;;;;;;5028893;28;20041;-76
2021/12/23 12:22:45;;;;;;;61.05;30.52;;;0.70;99.90;;;;;;5029527;28;20032;-73
2021/12/23 12:25:47;;;;;;;60.58;27.85;;;0.70;99.90;;;;;;5020251;28;20040;-75
2021/12/23 12:28:22;;;;;;;62.42;30.83;;;0.70;99.90;;;;;;5012206;28;20049;-76
2021/12/23 12:30:50;;;;;;;64.47;34.00;;;0.70;99.90;;;;;;5007742;28;20735;-73
2021/12/23 12:33:19;;;;;;;63.08;32.85;;;0.80;99.90;;;;;;5026553;28;20112;-73
2021/12/23 12:35:50;;;;;;;57.22;30.67;;;1.90;99.90;;;;;;5019994;28;20117;-73
2021/12/23 12:38:26;;;;;;;60.28;28.70;;;0.80;99.90;;;;;;5017902;28;20029;-73
2021/12/23 12:41:11;;;;;;;60.65;30.17;;;0.80;99.90;;;;;;5026794;28;20056;-73
2021/12/23 12:43:43;;;;;;;60.80;34.40;;;0.80;99.90;;;;;;5040511;28;20334;-73
2021/12/23 12:46:12;;;;;;;63.83;32.20;;;0.80;99.90;;;;;;5048974;28;20033;-73
2021/12/23 12:48:56;;;;;;;69.25;35.28;;;0.80;99.90;;;;;;5028898;28;20209;-73
2021/12/23 12:51:34;;;;;;;62.63;31.42;;;0.90;99.90;;;;;;5030726;28;20055;-73
2021/12/23 12:54:04;;;;;;;62.30;31.35;;;0.90;99.90;;;;;;5058432;28;20037;-75
2021/12/23 12:56:33;;;;;;;62.63;33.17;;;1.00;99.90;;;;;;5062012;28;20496;-73
2021/12/23 12:58:59;;;;;;;53.30;27.35;;;1.00;99.90;;;;;;5028300;28;20079;-76
2021/12/23 13:01:37;;;;;;;63.40;33.72;;;0.90;99.90;;;;;;5008177;28;20401;-76
2021/12/23 13:04:05;;;;;;;65.50;30.00;;;0.90;99.90;;;;;;5014128;28;20090;-76
2021/12/23 13:06:39;;;;;;;63.80;31.63;;;0.90;99.90;;;;;;5008955;28;20515;-76
2021/12/23 13:09:10;;;;;;;63.03;31.50;;;1.80;99.90;;;;;;5040106;28;20080;-76
2021/12/23 13:11:36;;;;;;;62.70;30.55;;;1.00;99.90;;;;;;5045244;28;20033;-76
2021/12/23 13:14:04;;;;;;;56.13;29.30;;;0.90;99.90;;;;;;5049118;28;20036;-75
2021/12/23 13:16:31;;;;;;;63.70;28.33;;;1.10;99.90;;;;;;5047367;28;20497;-75
2021/12/23 13:19:18;;;;;;;68.75;35.67;;;1.00;99.90;;;;;;5027462;28;20037;-76
2021/12/23 13:21:54;;;;;;;66.65;30.25;;;0.90;99.90;;;;;;5030236;28;20033;-75
2021/12/23 13:24:22;;;;;;;65.43;33.38;;;1.20;99.90;;;;;;5047035;28;20392;-74
2021/12/23 13:26:52;;;;;;;59.38;31.95;;;1.20;99.90;;;;;;5020869;28;20041;-76
2021/12/23 13:29:18;;;;;;;62.92;32.50;;;;;;;;;;5025414;28;20049;-75
2021/12/23 13:31:45;;;;;;;64.28;32.22;;;;;;;;;;5018823;28;20042;-75
2021/12/23 13:34:19;;;;;;;68.47;33.67;;;1.10;99.90;;;;;;5057385;28;20072;-75
2021/12/23 13:36:49;;;;;;;63.92;31.77;;;1.00;99.90;;;;;;5036391;28;20049;-75
2021/12/23 13:39:17;;;;;;;67.72;32.08;;;1.00;99.90;;;;;;5026446;28;20045;-75
2021/12/23 13:41:55;;;;;;;63.70;31.35;;;2.00;99.90;;;;;;5011884;28;20040;-75
2021/12/23 13:44:55;;;;;;;63.88;33.08;;;1.00;99.90;;;;;;5012322;28;20109;-75
2021/12/23 13:47:21;;;;;;;63.83;31.08;;;1.00;99.90;;;;;;5010371;28;20128;-76
2021/12/23 13:49:53;;;;;;;62.00;33.35;;;1.00;99.90;;;;;;5043377;28;20136;-76
2021/12/23 13:52:40;;;;;;;72.65;38.45;;;1.00;99.90;;;;;;5018809;28;20041;-75
2021/12/23 13:55:05;;;;;;;70.75;35.00;;;1.00;99.90;;;;;;5049509;28;20128;-76
2021/12/23 13:57:35;;;;;;;65.22;31.20;;;1.00;99.90;;;;;;5058530;28;20568;-76
2021/12/23 14:00:12;;;;;;;62.13;32.05;;;1.00;99.90;;;;;;5031144;28;20574;-78
2021/12/23 14:02:38;;;;;;;66.55;34.38;;;1.00;99.90;;;;;;5027467;28;20045;-76
2021/12/23 14:05:06;;;;;;;73.97;35.60;;;1.90;99.90;;;;;;5048584;28;20045;-75
2021/12/23 14:07:42;;;;;;;67.30;34.58;;;1.00;99.90;;;;;;5014670;28;20049;-76
2021/12/23 14:10:28;;;;;;;74.07;36.38;;;1.00;99.90;;;;;;5024671;28;20045;-76